Time;durP1;ratioP1;P1;durP2;ratioP2;P2;SDS_P1;SDS_P2;PMS_P1;PMS_P2;Temp;Humidity;BMP_temperature;BMP_pressure;BME280_temperature;BME280_humidity;BME280_pressure;Samples;Min_cycle;Max_cycle;Signal;HPM_P1;HPM_P2
2023/05/09 00:01:23;;;;;;;11.50;5.80;;;;;;;;;;104296;1284;2860997;-74
2023/05/09 00:03:50;;;;;;;14.60;6.90;;;;;;;;;;106415;1284;22544;-80
2023/05/09 00:06:18;;;;;;;14.30;6.00;;;;;;;;;;106404;1273;22523;-76
2023/05/09 00:08:48;;;;;;;11.60;5.70;;;;;;;;;;106485;1283;22523;-76
2023/05/09 00:11:15;;;;;;;14.60;7.00;;;;;;;;;;106481;1283;25318;-74
2023/05/09 00:13:43;;;;;;;15.50;6.90;;;;;;;;;;106484;1283;25588;-78
2023/05/09 00:16:10;;;;;;;13.80;6.90;;;;;;;;;;106471;1260;25271;-75
2023/05/09 00:18:37;;;;;;;14.70;6.70;;;;;;;;;;106422;1284;22709;-73
2023/05/09 00:21:03;;;;;;;14.40;7.30;;;;;;;;;;106370;1284;22639;-75
2023/05/09 00:23:30;;;;;;;16.50;6.60;;;;;;;;;;106370;1284;22519;-76
2023/05/09 00:25:58;;;;;;;13.90;6.50;;;;;;;;;;106409;1284;25210;-74
2023/05/09 00:28:45;;;;;;;12.90;5.90;;;;;;;;;;106422;1283;22639;-77
2023/05/09 00:31:12;;;;;;;16.30;7.30;;;;;;;;;;106506;1283;22553;-76
2023/05/09 00:33:38;;;;;;;14.10;6.80;;;;;;;;;;106402;1283;22579;-76
2023/05/09 00:36:05;;;;;;;13.00;6.90;;;;;;;;;;106473;1283;23870;-75
2023/05/09 00:38:32;;;;;;;15.80;6.80;;;;;;;;;;106386;1284;24381;-77
2023/05/09 00:40:59;;;;;;;13.00;6.80;;;;;;;;;;106322;1285;22530;-80
2023/05/09 00:43:26;;;;;;;15.90;7.00;;;;;;;;;;106213;1285;25283;-77
2023/05/09 00:45:52;;;;;;;18.30;6.80;;;;;;;;;;106347;1285;22646;-77
2023/05/09 00:48:39;;;;;;;14.50;6.90;;;;;;;;;;106396;1266;22527;-76
2023/05/09 00:51:06;;;;;;;14.10;7.00;;;;;;;;;;106349;1285;22651;-80
2023/05/09 00:53:33;;;;;;;14.60;6.80;;;;;;;;;;106301;1285;22541;-80
2023/05/09 00:56:00;;;;;;;14.50;7.60;;;;;;;;;;106401;1285;22533;-80
2023/05/09 00:58:27;;;;;;;14.60;7.80;;;;;;;;;;106310;1269;24326;-74
2023/05/09 01:00:53;;;;;;;15.70;7.30;;;;;;;;;;106353;1284;24180;-76
2023/05/09 01:03:21;;;;;;;15.80;8.40;;;;;;;;;;106393;1284;24209;-78
2023/05/09 01:05:56;;;;;;;17.00;8.30;;;;;;;;;;106398;1284;22628;-78
2023/05/09 01:08:23;;;;;;;15.70;8.10;;;;;;;;;;106442;1266;24301;-75
2023/05/09 01:10:56;;;;;;;15.50;8.30;;;;;;;;;;106848;1276;22520;-78
2023/05/09 01:13:29;;;;;;;16.60;8.70;;;;;;;;;;106866;1264;23180;-78
2023/05/09 01:16:04;;;;;;;15.80;8.60;;;;;;;;;;106928;1277;25392;-75
2023/05/09 01:18:32;;;;;;;17.00;8.30;;;;;;;;;;106870;1258;22521;-80
2023/05/09 01:20:59;;;;;;;15.90;8.80;;;;;;;;;;106813;1278;22649;-80
2023/05/09 01:23:43;;;;;;;18.40;9.10;;;;;;;;;;106794;1278;23244;-80
2023/05/09 01:26:18;;;;;;;19.40;8.80;;;;;;;;;;106822;1264;22517;-80
2023/05/09 01:29:07;;;;;;;19.90;9.40;;;;;;;;;;106842;1277;22998;-77
2023/05/09 01:31:54;;;;;;;20.30;8.70;;;;;;;;;;106865;1277;22510;-74
2023/05/09 01:34:23;;;;;;;20.80;8.20;;;;;;;;;;106834;1277;22544;-77
2023/05/09 01:37:02;;;;;;;17.90;8.30;;;;;;;;;;106873;1276;25262;-77
2023/05/09 01:39:30;;;;;;;19.50;8.50;;;;;;;;;;106793;1260;22541;-80
2023/05/09 01:41:59;;;;;;;19.60;8.60;;;;;;;;;;106834;1278;22510;-75
2023/05/09 01:44:30;;;;;;;16.20;8.10;;;;;;;;;;106879;1278;23912;-78
2023/05/09 01:47:06;;;;;;;17.10;7.90;;;;;;;;;;106762;1278;22639;-77
2023/05/09 01:49:53;;;;;;;19.50;7.70;;;;;;;;;;106767;1277;22531;-80
2023/05/09 01:52:40;;;;;;;15.70;7.60;;;;;;;;;;106850;1277;25340;-76
2023/05/09 01:55:11;;;;;;;16.00;8.00;;;;;;;;;;106834;1277;22621;-78
2023/05/09 01:57:39;;;;;;;16.30;7.90;;;;;;;;;;106824;1277;22647;-77
2023/05/09 02:00:07;;;;;;;17.00;8.60;;;;;;;;;;106801;1263;23128;-76
2023/05/09 02:02:59;;;;;;;13.70;7.80;;;;;;;;;;106871;1278;25333;-78
2023/05/09 02:05:45;;;;;;;;;;;;;;;;;;;;;
2023/05/09 02:08:19;;;;;;;15.00;7.70;;;;;;;;;;106829;1254;22629;-78
2023/05/09 02:10:57;;;;;;;14.70;8.00;;;;;;;;;;106840;1277;25459;-76
2023/05/09 02:13:27;;;;;;;15.50;7.50;;;;;;;;;;106873;1277;22539;-76
2023/05/09 02:16:06;;;;;;;19.40;7.60;;;;;;;;;;106858;1278;25373;-75
2023/05/09 02:19:16;;;;;;;15.70;7.50;;;;;;;;;;106828;1256;22662;-77
2023/05/09 02:21:40;;;;;;;14.90;7.80;;;;;;;;;;106791;1278;24340;-81
2023/05/09 02:24:07;;;;;;;14.40;7.10;;;;;;;;;;106816;1278;22536;-78
2023/05/09 02:26:35;;;;;;;15.60;7.40;;;;;;;;;;106641;1278;22530;-76
2023/05/09 02:29:04;;;;;;;17.60;7.00;;;;;;;;;;106812;1259;22558;-80
2023/05/09 02:31:32;;;;;;;14.80;7.50;;;;;;;;;;106864;1277;22628;-80
2023/05/09 02:34:01;;;;;;;19.50;7.90;;;;;;;;;;106850;1277;22520;-75
2023/05/09 02:36:37;;;;;;;15.60;7.50;;;;;;;;;;106838;1277;25947;-79
2023/05/09 02:39:04;;;;;;;16.30;7.90;;;;;;;;;;106795;1260;24173;-76
2023/05/09 02:41:31;;;;;;;17.60;7.70;;;;;;;;;;106812;1278;22616;-77
2023/05/09 02:44:02;;;;;;;17.10;8.10;;;;;;;;;;106647;1278;25249;-78
2023/05/09 02:46:29;;;;;;;16.00;7.80;;;;;;;;;;106782;1278;24173;-77
2023/05/09 02:48:56;;;;;;;15.80;8.00;;;;;;;;;;106732;1254;24365;-75
2023/05/09 02:51:33;;;;;;;16.90;8.40;;;;;;;;;;106790;1277;24292;-75
2023/05/09 02:54:02;;;;;;;15.80;7.40;;;;;;;;;;106811;1277;22614;-77
2023/05/09 02:56:32;;;;;;;15.80;7.90;;;;;;;;;;106858;1277;22633;-76
2023/05/09 02:58:59;;;;;;;14.90;8.20;;;;;;;;;;106539;1277;22655;-75
2023/05/09 03:08:30;;;;;;;15.80;7.90;;;;;;;;;;103946;1302;545586;-74
2023/05/09 03:10:57;;;;;;;15.70;7.70;;;;;;;;;;106152;1286;22656;-75
2023/05/09 03:13:34;;;;;;;19.10;9.30;;;;;;;;;;106034;1286;23593;-76
2023/05/09 03:16:01;;;;;;;18.50;9.10;;;;;;;;;;106351;1286;23904;-75
2023/05/09 03:18:28;;;;;;;18.00;8.70;;;;;;;;;;106026;1272;25120;-80
2023/05/09 03:20:57;;;;;;;17.30;9.30;;;;;;;;;;104889;1287;2935654;-74
2023/05/09 03:23:27;;;;;;;18.80;9.70;;;;;;;;;;106397;1284;25335;-78
2023/05/09 03:26:14;;;;;;;22.10;9.60;;;;;;;;;;106301;1284;22539;-80
2023/05/09 03:28:44;;;;;;;18.50;10.10;;;;;;;;;;106360;1266;22489;-80
2023/05/09 03:31:11;;;;;;;20.10;9.60;;;;;;;;;;106364;1266;22997;-81
2023/05/09 03:34:01;;;;;;;18.10;9.30;;;;;;;;;;106346;1284;25504;-77
2023/05/09 03:36:48;;;;;;;20.10;9.80;;;;;;;;;;106411;1284;22531;-75
2023/05/09 03:39:15;;;;;;;23.50;11.60;;;;;;;;;;106349;1269;25264;-77
2023/05/09 03:41:53;;;;;;;20.90;11.30;;;;;;;;;;106120;1286;22550;-78
2023/05/09 03:44:20;;;;;;;25.40;12.80;;;;;;;;;;106409;1286;24336;-75
2023/05/09 03:46:51;;;;;;;26.40;11.90;;;;;;;;;;106364;1286;22540;-74
2023/05/09 03:49:27;;;;;;;25.10;12.60;;;;;;;;;;106811;1260;24186;-79
2023/05/09 03:51:59;;;;;;;21.80;11.00;;;;;;;;;;106762;1277;22537;-76
2023/05/09 03:54:47;;;;;;;22.90;10.60;;;;;;;;;;106832;1257;22987;-79
2023/05/09 03:57:18;;;;;;;19.50;10.40;;;;;;;;;;106858;1277;23902;-79
2023/05/09 03:59:47;;;;;;;17.80;9.80;;;;;;;;;;106856;1259;22530;-78
2023/05/09 04:02:20;;;;;;;22.90;10.80;;;;;;;;;;106824;1276;22533;-78
2023/05/09 04:05:08;;;;;;;23.80;9.90;;;;;;;;;;106962;1276;24244;-80
2023/05/09 04:07:37;;;;;;;22.90;10.60;;;;;;;;;;106873;1276;25287;-74
2023/05/09 04:10:05;;;;;;;19.50;10.10;;;;;;;;;;106859;1259;22564;-78
2023/05/09 04:12:34;;;;;;;19.60;8.90;;;;;;;;;;106886;1277;24201;-76
2023/05/09 04:15:02;;;;;;;18.40;9.10;;;;;;;;;;106827;1277;22520;-75
2023/05/09 04:17:30;;;;;;;16.60;8.50;;;;;;;;;;106866;1277;24367;-80
2023/05/09 04:19:57;;;;;;;18.00;9.00;;;;;;;;;;106861;1276;23866;-76
2023/05/09 04:22:24;;;;;;;17.20;9.20;;;;;;;;;;106882;1266;22516;-77
2023/05/09 04:24:51;;;;;;;18.10;9.30;;;;;;;;;;106831;1276;24331;-81
2023/05/09 04:27:22;;;;;;;16.20;8.60;;;;;;;;;;106815;1276;25353;-78
2023/05/09 04:29:52;;;;;;;18.20;9.40;;;;;;;;;;106799;1263;22598;-81
2023/05/09 04:32:25;;;;;;;20.30;9.40;;;;;;;;;;106836;1278;25451;-77
2023/05/09 04:34:52;;;;;;;17.90;8.60;;;;;;;;;;106854;1277;22992;-75
2023/05/09 04:37:22;;;;;;;19.40;9.50;;;;;;;;;;106890;1277;22521;-76
2023/05/09 04:39:49;;;;;;;20.60;9.50;;;;;;;;;;106806;1260;24226;-82
2023/05/09 04:42:32;;;;;;;21.40;9.70;;;;;;;;;;106641;1277;24647;-76
2023/05/09 04:45:19;;;;;;;17.10;9.40;;;;;;;;;;106764;1277;22557;-78
2023/05/09 04:47:49;;;;;;;18.20;9.20;;;;;;;;;;106711;1276;24271;-77
2023/05/09 04:50:19;;;;;;;18.20;9.60;;;;;;;;;;106443;1261;22598;-80
2023/05/09 04:52:51;;;;;;;17.30;8.90;;;;;;;;;;106807;1278;25271;-79
2023/05/09 04:55:18;;;;;;;19.20;9.30;;;;;;;;;;106798;1278;24364;-79
2023/05/09 04:58:02;;;;;;;20.90;9.20;;;;;;;;;;106868;1277;25715;-77
2023/05/09 05:00:29;;;;;;;16.60;8.30;;;;;;;;;;106846;1258;25315;-79
2023/05/09 05:03:05;;;;;;;15.20;8.10;;;;;;;;;;106633;1276;22731;-81
2023/05/09 05:05:32;;;;;;;18.60;8.10;;;;;;;;;;106845;1276;22524;-82
2023/05/09 05:07:59;;;;;;;15.30;8.40;;;;;;;;;;106693;1276;23413;-81
2023/05/09 05:10:29;;;;;;;15.00;7.60;;;;;;;;;;106769;1271;22496;-77
2023/05/09 05:13:03;;;;;;;16.60;8.30;;;;;;;;;;106693;1275;24301;-77
2023/05/09 05:15:33;;;;;;;17.50;8.40;;;;;;;;;;106542;1268;22546;-81
2023/05/09 05:18:00;;;;;;;16.90;8.90;;;;;;;;;;106592;1278;25319;-75
2023/05/09 05:20:30;;;;;;;17.00;9.20;;;;;;;;;;106536;1259;25328;-79
2023/05/09 05:22:58;;;;;;;14.50;8.20;;;;;;;;;;106971;1276;22527;-79
2023/05/09 05:25:27;;;;;;;18.30;8.80;;;;;;;;;;106867;1275;25430;-76
2023/05/09 05:27:57;;;;;;;14.50;8.40;;;;;;;;;;106869;1277;23115;-79
2023/05/09 05:30:27;;;;;;;13.50;8.20;;;;;;;;;;106757;1276;22749;-76
2023/05/09 05:32:54;;;;;;;15.10;8.10;;;;;;;;;;106841;1274;22524;-75
2023/05/09 05:35:22;;;;;;;15.40;8.10;;;;;;;;;;106530;1275;22499;-78
2023/05/09 05:37:49;;;;;;;13.90;7.60;;;;;;;;;;106804;1277;25329;-83
2023/05/09 05:40:16;;;;;;;14.60;8.00;;;;;;;;;;106741;1270;24230;-80
2023/05/09 05:42:45;;;;;;;15.40;8.50;;;;;;;;;;106665;1277;22537;-80
2023/05/09 05:45:12;;;;;;;13.70;7.70;;;;;;;;;;106527;1277;22520;-79
2023/05/09 05:47:41;;;;;;;14.10;7.90;;;;;;;;;;106889;1277;24263;-79
2023/05/09 05:50:10;;;;;;;14.40;8.20;;;;;;;;;;106796;1277;22524;-78
2023/05/09 05:52:40;;;;;;;14.30;8.00;;;;;;;;;;106838;1260;22779;-81
2023/05/09 05:55:09;;;;;;;14.40;8.00;;;;;;;;;;106868;1277;22623;-79
2023/05/09 05:57:37;;;;;;;14.50;7.50;;;;;;;;;;106772;1277;24246;-77
2023/05/09 06:00:13;;;;;;;13.20;8.10;;;;;;;;;;106855;1277;22569;-76
2023/05/09 06:02:43;;;;;;;14.00;7.30;;;;;;;;;;106911;1270;22526;-82
2023/05/09 06:05:12;;;;;;;12.80;7.30;;;;;;;;;;106931;1263;22510;-75
2023/05/09 06:07:40;;;;;;;15.00;7.90;;;;;;;;;;106954;1277;24088;-79
2023/05/09 06:10:07;;;;;;;16.20;8.10;;;;;;;;;;106897;1277;25315;-79
2023/05/09 06:12:37;;;;;;;13.00;7.90;;;;;;;;;;106723;1260;22650;-78
2023/05/09 06:15:05;;;;;;;16.00;8.40;;;;;;;;;;106863;1276;24180;-80
2023/05/09 06:17:53;;;;;;;14.60;7.40;;;;;;;;;;106892;1276;22535;-80
2023/05/09 06:20:21;;;;;;;15.90;8.20;;;;;;;;;;107005;1276;25243;-75
2023/05/09 06:22:48;;;;;;;14.80;7.50;;;;;;;;;;106763;1278;22530;-81
2023/05/09 06:25:35;;;;;;;13.60;7.10;;;;;;;;;;106843;1255;24242;-76
2023/05/09 06:28:02;;;;;;;13.70;7.00;;;;;;;;;;106868;1278;22525;-83
2023/05/09 06:30:29;;;;;;;12.40;7.40;;;;;;;;;;106887;1278;25421;-82
2023/05/09 06:32:56;;;;;;;12.60;6.90;;;;;;;;;;106831;1262;22573;-82
2023/05/09 06:35:26;;;;;;;14.60;7.80;;;;;;;;;;106989;1276;22520;-80
2023/05/09 06:37:54;;;;;;;13.80;7.50;;;;;;;;;;107085;1254;22539;-78
2023/05/09 06:40:39;;;;;;;12.40;7.20;;;;;;;;;;107181;1274;25255;-78
2023/05/09 06:43:06;;;;;;;13.40;7.00;;;;;;;;;;107063;1256;25367;-77
2023/05/09 06:45:34;;;;;;;14.20;7.50;;;;;;;;;;106949;1276;24179;-77
2023/05/09 06:48:00;;;;;;;13.90;7.30;;;;;;;;;;106883;1276;24412;-82
2023/05/09 06:50:48;;;;;;;15.40;6.90;;;;;;;;;;106877;1276;24368;-77
2023/05/09 06:53:22;;;;;;;13.10;7.40;;;;;;;;;;107005;1254;24233;-83
2023/05/09 06:55:49;;;;;;;15.40;6.90;;;;;;;;;;107131;1274;25265;-83
2023/05/09 06:58:18;;;;;;;15.30;7.40;;;;;;;;;;107013;1274;24563;-79
2023/05/09 07:00:46;;;;;;;12.90;7.10;;;;;;;;;;107036;1274;24213;-75
2023/05/09 07:03:13;;;;;;;15.20;7.40;;;;;;;;;;106928;1259;22575;-82
2023/05/09 07:05:39;;;;;;;13.60;7.50;;;;;;;;;;107008;1276;25535;-82
2023/05/09 07:08:06;;;;;;;13.10;6.90;;;;;;;;;;106871;1276;22532;-82
2023/05/09 07:10:37;;;;;;;12.70;7.40;;;;;;;;;;106869;1276;23116;-76
2023/05/09 07:13:04;;;;;;;13.60;7.40;;;;;;;;;;106986;1274;22542;-80
2023/05/09 07:15:31;;;;;;;13.20;7.40;;;;;;;;;;107120;1274;22953;-75
2023/05/09 07:18:19;;;;;;;14.50;7.20;;;;;;;;;;107173;1274;22630;-82
2023/05/09 07:20:46;;;;;;;16.20;7.80;;;;;;;;;;107027;1274;22507;-83
2023/05/09 07:23:13;;;;;;;13.90;7.10;;;;;;;;;;106926;1263;22532;-83
2023/05/09 07:25:40;;;;;;;13.20;7.50;;;;;;;;;;106985;1276;24243;-76
2023/05/09 07:28:11;;;;;;;15.80;7.50;;;;;;;;;;106903;1276;22525;-80
2023/05/09 07:30:45;;;;;;;13.70;6.60;;;;;;;;;;107027;1276;25459;-80
2023/05/09 07:33:12;;;;;;;13.50;7.00;;;;;;;;;;106979;1256;23035;-75
2023/05/09 07:35:39;;;;;;;10.50;6.50;;;;;;;;;;107149;1274;22749;-80
2023/05/09 07:38:05;;;;;;;13.10;7.20;;;;;;;;;;107034;1274;22780;-80
2023/05/09 07:40:35;;;;;;;12.30;7.00;;;;;;;;;;107265;1256;21793;-76
2023/05/09 07:43:01;;;;;;;11.80;6.50;;;;;;;;;;106981;1258;25332;-78
2023/05/09 07:45:28;;;;;;;16.10;7.20;;;;;;;;;;107076;1276;25435;-80
2023/05/09 07:47:55;;;;;;;12.60;6.30;;;;;;;;;;106908;1276;25271;-77
2023/05/09 07:50:22;;;;;;;12.50;6.70;;;;;;;;;;106855;1276;25438;-76
2023/05/09 07:52:51;;;;;;;12.80;6.90;;;;;;;;;;107015;1251;22526;-77
2023/05/09 07:55:18;;;;;;;12.70;6.60;;;;;;;;;;106903;1274;24390;-82
2023/05/09 07:57:44;;;;;;;13.70;7.00;;;;;;;;;;107146;1257;24206;-81
2023/05/09 08:00:11;;;;;;;14.10;6.70;;;;;;;;;;106998;1274;22571;-83
2023/05/09 08:02:41;;;;;;;10.90;6.60;;;;;;;;;;107214;1274;22544;-80
2023/05/09 08:05:10;;;;;;;12.80;7.10;;;;;;;;;;106851;1267;22598;-77
2023/05/09 08:07:36;;;;;;;11.80;6.40;;;;;;;;;;107001;1275;25275;-80
2023/05/09 08:10:03;;;;;;;16.00;6.00;;;;;;;;;;107026;1276;25303;-75
2023/05/09 08:12:30;;;;;;;12.50;5.40;;;;;;;;;;107020;1259;22520;-82
2023/05/09 08:14:57;;;;;;;13.00;6.50;;;;;;;;;;106864;1260;22523;-79
2023/05/09 08:17:27;;;;;;;12.40;5.90;;;;;;;;;;107180;1274;22609;-78
2023/05/09 08:19:54;;;;;;;11.70;6.00;;;;;;;;;;107154;1274;24187;-78
2023/05/09 08:22:20;;;;;;;10.60;5.20;;;;;;;;;;107123;1274;22653;-78
2023/05/09 08:24:47;;;;;;;11.80;5.40;;;;;;;;;;107118;1274;25328;-81
2023/05/09 08:27:14;;;;;;;9.70;5.30;;;;;;;;;;106931;1275;22521;-76
2023/05/09 08:29:42;;;;;;;11.80;6.20;;;;;;;;;;107131;1275;26396;-79
2023/05/09 08:32:08;;;;;;;10.20;5.40;;;;;;;;;;106938;1275;22521;-83
2023/05/09 08:34:35;;;;;;;15.50;5.70;;;;;;;;;;106963;1257;22644;-84
2023/05/09 08:37:03;;;;;;;13.00;5.60;;;;;;;;;;107051;1274;22520;-77
2023/05/09 08:39:30;;;;;;;10.80;5.20;;;;;;;;;;107021;1274;25275;-80
2023/05/09 08:41:58;;;;;;;11.10;5.80;;;;;;;;;;107051;1274;22563;-82
2023/05/09 08:44:25;;;;;;;12.10;6.30;;;;;;;;;;107103;1257;22518;-79
2023/05/09 08:46:53;;;;;;;14.90;5.70;;;;;;;;;;106906;1274;25471;-75
2023/05/09 08:49:20;;;;;;;12.00;5.60;;;;;;;;;;107146;1275;26496;-82
2023/05/09 08:51:51;;;;;;;15.10;5.80;;;;;;;;;;106896;1275;25433;-79
2023/05/09 08:54:18;;;;;;;14.10;5.90;;;;;;;;;;107105;1251;25271;-75
2023/05/09 08:56:45;;;;;;;11.30;5.40;;;;;;;;;;106852;1274;25277;-76
2023/05/09 08:59:16;;;;;;;10.80;5.90;;;;;;;;;;106865;1262;23151;-82
2023/05/09 09:01:43;;;;;;;15.10;5.80;;;;;;;;;;107150;1274;22511;-80
2023/05/09 09:04:13;;;;;;;12.40;5.70;;;;;;;;;;107081;1254;22521;-79
2023/05/09 09:06:40;;;;;;;10.20;5.60;;;;;;;;;;106908;1273;25386;-78
2023/05/09 09:09:07;;;;;;;11.60;5.90;;;;;;;;;;107080;1275;22521;-78
2023/05/09 09:11:35;;;;;;;10.40;5.90;;;;;;;;;;107124;1275;24184;-78
2023/05/09 09:14:07;;;;;;;12.60;6.40;;;;;;;;;;107113;1275;24236;-80
2023/05/09 09:16:35;;;;;;;11.20;5.90;;;;;;;;;;107106;1264;22525;-77
2023/05/09 09:19:12;;;;;;;11.30;6.30;;;;;;;;;;107130;1274;21690;-81
2023/05/09 09:21:43;;;;;;;27.10;13.70;;;;;;;;;;106880;1274;22520;-82
2023/05/09 09:24:12;;;;;;;14.20;7.30;;;;;;;;;;107114;1274;22627;-83
2023/05/09 09:26:45;;;;;;;18.50;8.70;;;;;;;;;;107138;1256;22516;-80
2023/05/09 09:29:12;;;;;;;12.60;7.20;;;;;;;;;;107087;1275;22537;-83
2023/05/09 09:31:51;;;;;;;13.50;7.30;;;;;;;;;;107072;1253;22525;-80
2023/05/09 09:34:19;;;;;;;13.20;7.00;;;;;;;;;;106960;1262;22542;-74
2023/05/09 09:36:47;;;;;;;15.70;5.90;;;;;;;;;;107095;1254;25274;-75
2023/05/09 09:39:14;;;;;;;12.40;6.20;;;;;;;;;;107148;1272;22521;-79
2023/05/09 09:41:43;;;;;;;10.60;6.70;;;;;;;;;;106996;1274;22529;-79
2023/05/09 09:44:14;;;;;;;11.40;6.50;;;;;;;;;;106991;1274;25480;-80
2023/05/09 09:46:45;;;;;;;9.50;4.90;;;;;;;;;;107131;1264;24283;-82
2023/05/09 09:49:12;;;;;;;11.90;5.90;;;;;;;;;;106972;1275;25600;-82
2023/05/09 09:51:43;;;;;;;18.70;6.70;;;;;;;;;;106876;1274;22531;-80
2023/05/09 09:54:13;;;;;;;12.40;5.90;;;;;;;;;;106920;1274;25368;-80
2023/05/09 09:56:41;;;;;;;10.80;5.60;;;;;;;;;;107129;1274;24196;-83
2023/05/09 09:59:15;;;;;;;11.50;5.20;;;;;;;;;;107141;1274;25217;-80
2023/05/09 10:01:57;;;;;;;10.40;5.30;;;;;;;;;;106878;1274;24359;-80
2023/05/09 10:04:26;;;;;;;9.60;5.10;;;;;;;;;;107130;1274;22868;-77
2023/05/09 10:06:57;;;;;;;11.40;5.80;;;;;;;;;;107062;1256;22717;-81
2023/05/09 10:09:25;;;;;;;10.80;5.70;;;;;;;;;;106974;1275;22493;-81
2023/05/09 10:11:53;;;;;;;10.50;5.70;;;;;;;;;;107084;1273;22522;-81
2023/05/09 10:14:22;;;;;;;11.30;5.10;;;;;;;;;;106823;1275;26689;-78
2023/05/09 10:16:50;;;;;;;11.10;5.30;;;;;;;;;;106940;1256;22527;-81
2023/05/09 10:19:18;;;;;;;9.70;5.30;;;;;;;;;;107058;1274;24364;-80
2023/05/09 10:21:50;;;;;;;10.90;5.80;;;;;;;;;;107099;1274;22532;-78
2023/05/09 10:24:21;;;;;;;12.50;5.50;;;;;;;;;;107002;1274;22641;-75
2023/05/09 10:26:48;;;;;;;12.60;5.50;;;;;;;;;;106925;1268;23346;-83
2023/05/09 10:29:21;;;;;;;10.40;6.10;;;;;;;;;;106972;1276;22828;-77
2023/05/09 10:31:58;;;;;;;10.60;5.40;;;;;;;;;;106891;1276;22645;-81
2023/05/09 10:34:26;;;;;;;14.40;5.60;;;;;;;;;;107042;1276;22502;-77
2023/05/09 10:36:54;;;;;;;9.90;5.10;;;;;;;;;;106952;1266;25255;-81
2023/05/09 10:39:21;;;;;;;10.20;5.30;;;;;;;;;;106993;1274;22524;-81
2023/05/09 10:41:48;;;;;;;10.90;5.30;;;;;;;;;;107102;1274;25333;-80
2023/05/09 10:44:15;;;;;;;11.30;5.80;;;;;;;;;;107121;1274;25336;-77
2023/05/09 10:46:43;;;;;;;9.50;4.90;;;;;;;;;;107083;1274;24167;-82
2023/05/09 10:49:10;;;;;;;8.40;4.90;;;;;;;;;;106975;1275;22520;-84
2023/05/09 10:51:36;;;;;;;10.00;4.80;;;;;;;;;;107041;1275;25265;-83
2023/05/09 10:54:12;;;;;;;12.40;5.70;;;;;;;;;;106898;1275;22573;-78
2023/05/09 10:56:38;;;;;;;10.60;5.40;;;;;;;;;;106978;1251;25307;-81
2023/05/09 10:59:05;;;;;;;9.40;5.30;;;;;;;;;;107035;1274;25417;-79
2023/05/09 11:01:41;;;;;;;11.10;4.50;;;;;;;;;;106988;1274;22782;-83
2023/05/09 11:04:10;;;;;;;10.20;5.00;;;;;;;;;;107522;1274;22530;-76
2023/05/09 11:06:44;;;;;;;12.70;5.30;;;;;;;;;;107192;1251;24253;-76
2023/05/09 11:09:32;;;;;;;10.10;4.90;;;;;;;;;;107076;1253;22550;-83
2023/05/09 11:12:25;;;;;;;8.80;4.50;;;;;;;;;;106867;1275;22524;-83
2023/05/09 11:14:53;;;;;;;10.80;3.80;;;;;;;;;;106842;1275;22546;-76
2023/05/09 11:17:20;;;;;;;9.40;4.30;;;;;;;;;;106858;1257;25602;-78
2023/05/09 11:20:05;;;;;;;10.50;4.60;;;;;;;;;;107145;1256;22526;-78
2023/05/09 11:22:42;;;;;;;9.80;4.50;;;;;;;;;;107138;1274;25223;-83
2023/05/09 11:25:15;;;;;;;10.10;4.30;;;;;;;;;;107084;1274;22489;-81
2023/05/09 11:27:43;;;;;;;10.10;4.20;;;;;;;;;;107098;1257;22740;-80
2023/05/09 11:30:12;;;;;;;9.10;4.40;;;;;;;;;;107225;1275;22680;-81
2023/05/09 11:32:46;;;;;;;9.30;3.80;;;;;;;;;;107040;1275;25278;-79
2023/05/09 11:35:16;;;;;;;10.00;4.30;;;;;;;;;;107225;1275;22524;-79
2023/05/09 11:37:45;;;;;;;8.80;3.90;;;;;;;;;;107191;1275;22604;-77
2023/05/09 11:40:12;;;;;;;8.30;3.90;;;;;;;;;;107330;1274;23029;-77
2023/05/09 11:42:41;;;;;;;9.80;3.90;;;;;;;;;;106928;1274;22555;-80
2023/05/09 11:45:08;;;;;;;9.20;4.00;;;;;;;;;;107128;1274;24239;-81
2023/05/09 11:47:36;;;;;;;8.30;3.90;;;;;;;;;;107170;1254;25268;-79
2023/05/09 11:50:06;;;;;;;7.80;3.80;;;;;;;;;;107101;1275;24201;-82
2023/05/09 11:52:36;;;;;;;9.20;4.50;;;;;;;;;;107100;1274;22905;-81
2023/05/09 11:55:13;;;;;;;13.10;6.60;;;;;;;;;;106903;1274;22527;-82
2023/05/09 11:57:43;;;;;;;10.90;4.40;;;;;;;;;;107179;1251;22998;-81
2023/05/09 12:00:10;;;;;;;7.50;4.30;;;;;;;;;;107057;1274;22644;-82
2023/05/09 12:02:37;;;;;;;11.00;3.90;;;;;;;;;;107150;1274;22517;-76
2023/05/09 12:05:09;;;;;;;8.00;3.60;;;;;;;;;;107180;1267;22529;-80
2023/05/09 12:07:36;;;;;;;9.20;4.70;;;;;;;;;;106898;1267;25442;-75
2023/05/09 12:10:11;;;;;;;8.60;4.40;;;;;;;;;;107043;1267;25428;-84
2023/05/09 12:12:43;;;;;;;11.70;4.50;;;;;;;;;;106926;1267;25198;-79
2023/05/09 12:15:12;;;;;;;12.40;5.20;;;;;;;;;;106924;1270;24685;-80
2023/05/09 12:17:39;;;;;;;8.80;3.80;;;;;;;;;;106869;1269;25367;-77
2023/05/09 12:20:07;;;;;;;9.10;3.60;;;;;;;;;;107127;1258;22974;-80
2023/05/09 12:22:34;;;;;;;9.50;3.90;;;;;;;;;;106913;1267;25521;-77
2023/05/09 12:25:10;;;;;;;8.00;3.70;;;;;;;;;;107020;1273;22530;-76
2023/05/09 12:27:38;;;;;;;8.10;4.10;;;;;;;;;;106933;1275;25307;-77
2023/05/09 12:30:14;;;;;;;8.20;3.50;;;;;;;;;;107063;1274;22606;-77
2023/05/09 12:32:45;;;;;;;9.00;3.60;;;;;;;;;;106990;1274;22524;-79
2023/05/09 12:35:12;;;;;;;8.00;4.00;;;;;;;;;;106820;1270;22541;-76
2023/05/09 12:37:39;;;;;;;8.60;3.60;;;;;;;;;;106959;1267;25466;-79
2023/05/09 12:40:11;;;;;;;9.30;3.70;;;;;;;;;;106925;1258;22545;-76
2023/05/09 12:42:44;;;;;;;8.20;3.40;;;;;;;;;;107007;1267;22553;-80
2023/05/09 12:45:12;;;;;;;9.10;3.20;;;;;;;;;;106935;1267;22664;-75
2023/05/09 12:47:40;;;;;;;9.10;3.80;;;;;;;;;;106928;1267;25500;-77
2023/05/09 12:50:09;;;;;;;8.70;3.70;;;;;;;;;;106957;1257;25343;-77
2023/05/09 12:52:45;;;;;;;9.70;4.30;;;;;;;;;;106893;1267;22561;-80
2023/05/09 12:55:13;;;;;;;10.10;3.90;;;;;;;;;;107024;1267;22756;-80
2023/05/09 12:57:43;;;;;;;7.10;3.30;;;;;;;;;;106853;1267;22527;-77
2023/05/09 13:00:11;;;;;;;11.20;4.10;;;;;;;;;;106869;1257;22512;-82
2023/05/09 13:02:40;;;;;;;16.90;5.20;;;;;;;;;;106847;1275;22662;-76
2023/05/09 13:05:10;;;;;;;13.10;5.50;;;;;;;;;;106817;1275;22483;-79
2023/05/09 13:07:38;;;;;;;8.90;3.50;;;;;;;;;;106911;1275;25419;-78
2023/05/09 13:10:09;;;;;;;12.10;3.80;;;;;;;;;;106895;1257;23903;-82
2023/05/09 13:12:37;;;;;;;8.80;3.90;;;;;;;;;;107099;1275;25322;-83
2023/05/09 13:15:05;;;;;;;9.90;3.70;;;;;;;;;;107095;1275;22533;-83
2023/05/09 13:17:32;;;;;;;8.20;3.30;;;;;;;;;;106888;1275;22537;-82
2023/05/09 13:19:59;;;;;;;7.20;3.00;;;;;;;;;;106841;1259;22517;-80
2023/05/09 13:22:26;;;;;;;8.90;3.30;;;;;;;;;;106914;1275;22542;-77
2023/05/09 13:24:52;;;;;;;8.60;3.20;;;;;;;;;;106924;1275;22992;-84
2023/05/09 13:27:19;;;;;;;10.80;3.30;;;;;;;;;;107116;1275;22547;-83
2023/05/09 13:29:46;;;;;;;8.90;3.00;;;;;;;;;;107089;1254;24240;-80
2023/05/09 13:32:13;;;;;;;8.60;3.60;;;;;;;;;;107070;1275;22523;-85
2023/05/09 13:34:42;;;;;;;7.30;2.70;;;;;;;;;;106866;1275;22527;-81
2023/05/09 13:37:09;;;;;;;7.10;2.50;;;;;;;;;;107106;1275;25426;-82
2023/05/09 13:39:36;;;;;;;7.50;2.80;;;;;;;;;;106875;1275;25452;-77
2023/05/09 13:42:03;;;;;;;10.40;3.10;;;;;;;;;;106894;1274;25599;-80
2023/05/09 13:44:29;;;;;;;9.90;3.20;;;;;;;;;;106911;1275;22636;-80
2023/05/09 13:46:58;;;;;;;8.10;3.10;;;;;;;;;;107096;1274;24192;-77
2023/05/09 13:49:29;;;;;;;6.90;3.20;;;;;;;;;;107190;1275;23913;-76
2023/05/09 13:51:56;;;;;;;8.70;3.30;;;;;;;;;;107029;1258;25321;-75
2023/05/09 13:54:22;;;;;;;9.60;3.40;;;;;;;;;;107046;1275;22507;-81
2023/05/09 13:56:50;;;;;;;8.50;2.70;;;;;;;;;;106866;1275;23044;-79
2023/05/09 13:59:16;;;;;;;8.70;3.20;;;;;;;;;;106891;1275;22528;-85
2023/05/09 14:01:43;;;;;;;9.30;2.80;;;;;;;;;;106897;1255;22621;-80
2023/05/09 14:04:10;;;;;;;7.80;3.10;;;;;;;;;;107063;1275;22664;-78
2023/05/09 14:06:37;;;;;;;6.30;2.80;;;;;;;;;;106975;1275;25553;-75
2023/05/09 14:09:04;;;;;;;6.90;2.80;;;;;;;;;;106969;1275;24196;-78
2023/05/09 14:11:30;;;;;;;8.50;2.70;;;;;;;;;;107084;1257;23012;-78
2023/05/09 14:13:57;;;;;;;9.20;3.30;;;;;;;;;;106793;1269;22532;-76
2023/05/09 14:16:24;;;;;;;6.30;2.90;;;;;;;;;;106798;1274;22529;-83
2023/05/09 14:18:51;;;;;;;8.00;3.00;;;;;;;;;;107110;1274;22499;-83
2023/05/09 14:21:18;;;;;;;7.20;2.70;;;;;;;;;;107079;1257;22523;-84
2023/05/09 14:23:45;;;;;;;6.60;2.90;;;;;;;;;;106912;1275;23592;-83
2023/05/09 14:26:12;;;;;;;6.40;2.80;;;;;;;;;;106872;1275;22569;-83
2023/05/09 14:28:39;;;;;;;9.10;2.60;;;;;;;;;;106912;1275;25223;-80
2023/05/09 14:31:06;;;;;;;6.40;2.70;;;;;;;;;;107112;1275;25233;-79
2023/05/09 14:33:34;;;;;;;6.60;3.10;;;;;;;;;;106891;1275;25436;-77
2023/05/09 14:36:01;;;;;;;6.00;2.40;;;;;;;;;;107101;1275;22988;-80
2023/05/09 14:38:28;;;;;;;8.70;2.80;;;;;;;;;;106860;1274;22518;-81
2023/05/09 14:40:55;;;;;;;7.20;2.90;;;;;;;;;;107107;1252;22681;-79
2023/05/09 14:43:23;;;;;;;8.30;3.00;;;;;;;;;;106872;1275;25243;-81
2023/05/09 14:45:49;;;;;;;6.00;2.90;;;;;;;;;;107115;1275;23894;-79